sensor_id;sensor_type;location;lat;lon;timestamp;pressure;altitude;pressure_sealevel;temperature
64790;BMP280;51223;51.816;5.862;2022-08-18T00:01:20;101236.72;;;24.90
64790;BMP280;51223;51.816;5.862;2022-08-18T00:03:48;101238.94;;;24.45
64790;BMP280;51223;51.816;5.862;2022-08-18T00:06:17;101235.72;;;24.81
64790;BMP280;51223;51.816;5.862;2022-08-18T00:08:43;101247.50;;;24.61
64790;BMP280;51223;51.816;5.862;2022-08-18T00:11:09;101242.28;;;24.54
64790;BMP280;51223;51.816;5.862;2022-08-18T00:13:35;101248.75;;;24.83
64790;BMP280;51223;51.816;5.862;2022-08-18T00:16:01;101244.16;;;25.20
64790;BMP280;51223;51.816;5.862;2022-08-18T00:18:27;101245.66;;;24.64
64790;BMP280;51223;51.816;5.862;2022-08-18T00:20:53;101249.00;;;24.90
64790;BMP280;51223;51.816;5.862;2022-08-18T00:23:19;101246.03;;;25.01
64790;BMP280;51223;51.816;5.862;2022-08-18T00:25:45;101242.94;;;24.99
64790;BMP280;51223;51.816;5.862;2022-08-18T00:28:11;101244.66;;;24.33
64790;BMP280;51223;51.816;5.862;2022-08-18T00:30:38;101248.59;;;24.19
64790;BMP280;51223;51.816;5.862;2022-08-18T00:33:04;101255.59;;;24.29
64790;BMP280;51223;51.816;5.862;2022-08-18T00:35:33;101258.38;;;24.85
64790;BMP280;51223;51.816;5.862;2022-08-18T00:38:03;101254.41;;;24.99
64790;BMP280;51223;51.816;5.862;2022-08-18T00:40:36;101257.63;;;24.68
64790;BMP280;51223;51.816;5.862;2022-08-18T00:43:04;101253.78;;;24.26
64790;BMP280;51223;51.816;5.862;2022-08-18T00:45:33;101253.53;;;24.30
64790;BMP280;51223;51.816;5.862;2022-08-18T00:48:02;101260.81;;;24.59
64790;BMP280;51223;51.816;5.862;2022-08-18T00:50:43;101258.75;;;24.48
64790;BMP280;51223;51.816;5.862;2022-08-18T00:53:14;101263.69;;;24.48
64790;BMP280;51223;51.816;5.862;2022-08-18T00:55:43;101259.78;;;24.51
64790;BMP280;51223;51.816;5.862;2022-08-18T00:58:21;101260.31;;;24.44
64790;BMP280;51223;51.816;5.862;2022-08-18T01:00:49;101257.59;;;24.73
64790;BMP280;51223;51.816;5.862;2022-08-18T01:03:18;101264.69;;;24.61
64790;BMP280;51223;51.816;5.862;2022-08-18T01:05:49;101260.31;;;24.16
64790;BMP280;51223;51.816;5.862;2022-08-18T01:08:17;101258.72;;;24.54
64790;BMP280;51223;51.816;5.862;2022-08-18T01:10:43;101259.00;;;24.39
64790;BMP280;51223;51.816;5.862;2022-08-18T01:13:10;101270.69;;;24.69
64790;BMP280;51223;51.816;5.862;2022-08-18T01:15:36;101267.78;;;24.86
64790;BMP280;51223;51.816;5.862;2022-08-18T01:18:13;101272.28;;;24.48
64790;BMP280;51223;51.816;5.862;2022-08-18T01:24:07;101261.03;;;24.77
64790;BMP280;51223;51.816;5.862;2022-08-18T01:26:37;101259.78;;;24.51
64790;BMP280;51223;51.816;5.862;2022-08-18T01:29:06;101261.84;;;24.50
64790;BMP280;51223;51.816;5.862;2022-08-18T01:31:42;101260.56;;;24.51
64790;BMP280;51223;51.816;5.862;2022-08-18T01:34:11;101255.88;;;24.43
64790;BMP280;51223;51.816;5.862;2022-08-18T01:36:39;101246.72;;;24.50
64790;BMP280;51223;51.816;5.862;2022-08-18T01:39:09;101250.59;;;24.69
64790;BMP280;51223;51.816;5.862;2022-08-18T01:41:35;101258.94;;;24.72
64790;BMP280;51223;51.816;5.862;2022-08-18T01:44:02;101256.38;;;24.47
64790;BMP280;51223;51.816;5.862;2022-08-18T01:46:31;101255.81;;;23.70
64790;BMP280;51223;51.816;5.862;2022-08-18T01:48:59;101258.97;;;23.83
64790;BMP280;51223;51.816;5.862;2022-08-18T01:51:27;101254.69;;;23.34
64790;BMP280;51223;51.816;5.862;2022-08-18T01:53:55;101264.25;;;23.20
64790;BMP280;51223;51.816;5.862;2022-08-18T01:56:21;101263.59;;;23.53
64790;BMP280;51223;51.816;5.862;2022-08-18T01:58:47;101275.25;;;23.38
64790;BMP280;51223;51.816;5.862;2022-08-18T02:01:14;101272.75;;;23.63
64790;BMP280;51223;51.816;5.862;2022-08-18T02:03:45;101273.81;;;23.76
64790;BMP280;51223;51.816;5.862;2022-08-18T02:06:15;101267.78;;;23.58
64790;BMP280;51223;51.816;5.862;2022-08-18T02:08:43;101268.56;;;23.64
64790;BMP280;51223;51.816;5.862;2022-08-18T02:11:10;101264.88;;;23.52
64790;BMP280;51223;51.816;5.862;2022-08-18T02:13:36;101274.72;;;23.34
64790;BMP280;51223;51.816;5.862;2022-08-18T02:16:02;101266.75;;;23.77
64790;BMP280;51223;51.816;5.862;2022-08-18T02:18:33;101259.91;;;23.36
64790;BMP280;51223;51.816;5.862;2022-08-18T02:21:07;101265.34;;;23.28
64790;BMP280;51223;51.816;5.862;2022-08-18T02:23:34;101262.44;;;23.23
64790;BMP280;51223;51.816;5.862;2022-08-18T02:26:04;101260.81;;;23.11
64790;BMP280;51223;51.816;5.862;2022-08-18T02:28:30;101270.34;;;22.91
64790;BMP280;51223;51.816;5.862;2022-08-18T02:30:56;101267.91;;;23.26
64790;BMP280;51223;51.816;5.862;2022-08-18T02:33:22;101277.44;;;23.66
64790;BMP280;51223;51.816;5.862;2022-08-18T02:35:54;101261.28;;;22.92
64790;BMP280;51223;51.816;5.862;2022-08-18T02:38:19;101277.41;;;23.01
64790;BMP280;51223;51.816;5.862;2022-08-18T02:40:45;101276.81;;;23.45
64790;BMP280;51223;51.816;5.862;2022-08-18T02:43:11;101284.72;;;23.02
64790;BMP280;51223;51.816;5.862;2022-08-18T02:45:38;101293.00;;;23.54
64790;BMP280;51223;51.816;5.862;2022-08-18T02:48:04;101287.69;;;22.76
64790;BMP280;51223;51.816;5.862;2022-08-18T02:50:30;101287.00;;;23.46
64790;BMP280;51223;51.816;5.862;2022-08-18T02:52:56;101284.91;;;23.47
64790;BMP280;51223;51.816;5.862;2022-08-18T02:55:22;101293.84;;;22.69
64790;BMP280;51223;51.816;5.862;2022-08-18T02:57:51;101288.53;;;23.36
64790;BMP280;51223;51.816;5.862;2022-08-18T03:00:20;101295.34;;;22.59
64790;BMP280;51223;51.816;5.862;2022-08-18T03:02:48;101290.19;;;23.00
64790;BMP280;51223;51.816;5.862;2022-08-18T03:05:17;101295.06;;;22.88
64790;BMP280;51223;51.816;5.862;2022-08-18T03:07:43;101293.25;;;23.45
64790;BMP280;51223;51.816;5.862;2022-08-18T03:10:10;101300.91;;;23.86
64790;BMP280;51223;51.816;5.862;2022-08-18T03:12:36;101298.25;;;23.61
64790;BMP280;51223;51.816;5.862;2022-08-18T03:15:02;101289.41;;;23.59
64790;BMP280;51223;51.816;5.862;2022-08-18T03:17:28;101291.97;;;23.51
64790;BMP280;51223;51.816;5.862;2022-08-18T03:19:56;101294.69;;;23.99
64790;BMP280;51223;51.816;5.862;2022-08-18T03:22:22;101290.09;;;23.43
64790;BMP280;51223;51.816;5.862;2022-08-18T03:24:50;101287.94;;;23.21
64790;BMP280;51223;51.816;5.862;2022-08-18T03:27:15;101284.63;;;23.33
64790;BMP280;51223;51.816;5.862;2022-08-18T03:29:41;101280.34;;;23.77
64790;BMP280;51223;51.816;5.862;2022-08-18T03:32:07;101280.81;;;23.05
64790;BMP280;51223;51.816;5.862;2022-08-18T03:34:33;101286.41;;;23.25
64790;BMP280;51223;51.816;5.862;2022-08-18T03:36:59;101289.56;;;23.38
64790;BMP280;51223;51.816;5.862;2022-08-18T03:39:25;101281.22;;;23.35
64790;BMP280;51223;51.816;5.862;2022-08-18T03:41:53;101290.88;;;23.49
64790;BMP280;51223;51.816;5.862;2022-08-18T03:44:21;101287.06;;;23.09
64790;BMP280;51223;51.816;5.862;2022-08-18T03:46:48;101297.38;;;22.84
64790;BMP280;51223;51.816;5.862;2022-08-18T03:49:15;101282.47;;;23.23
64790;BMP280;51223;51.816;5.862;2022-08-18T03:51:44;101286.91;;;22.76
64790;BMP280;51223;51.816;5.862;2022-08-18T03:54:15;101283.97;;;23.13
64790;BMP280;51223;51.816;5.862;2022-08-18T03:56:42;101282.09;;;23.58
64790;BMP280;51223;51.816;5.862;2022-08-18T03:59:20;101277.75;;;23.84
64790;BMP280;51223;51.816;5.862;2022-08-18T04:01:48;101271.25;;;24.06
64790;BMP280;51223;51.816;5.862;2022-08-18T04:04:19;101276.94;;;23.90
64790;BMP280;51223;51.816;5.862;2022-08-18T04:06:53;101272.00;;;23.73
64790;BMP280;51223;51.816;5.862;2022-08-18T04:09:20;101265.22;;;23.93
64790;BMP280;51223;51.816;5.862;2022-08-18T04:11:46;101269.00;;;23.34
64790;BMP280;51223;51.816;5.862;2022-08-18T04:14:15;101272.41;;;23.50
64790;BMP280;51223;51.816;5.862;2022-08-18T04:16:41;101271.38;;;23.47
64790;BMP280;51223;51.816;5.862;2022-08-18T04:19:08;101280.34;;;23.77
64790;BMP280;51223;51.816;5.862;2022-08-18T04:21:37;101275.41;;;23.94
64790;BMP280;51223;51.816;5.862;2022-08-18T04:24:05;101279.31;;;23.91
64790;BMP280;51223;51.816;5.862;2022-08-18T04:26:34;101276.47;;;23.15
64790;BMP280;51223;51.816;5.862;2022-08-18T04:29:01;101286.19;;;22.86
64790;BMP280;51223;51.816;5.862;2022-08-18T04:31:28;101280.03;;;23.64
64790;BMP280;51223;51.816;5.862;2022-08-18T04:33:55;101279.25;;;23.04
64790;BMP280;51223;51.816;5.862;2022-08-18T04:36:25;101279.53;;;23.06
64790;BMP280;51223;51.816;5.862;2022-08-18T04:38:51;101278.38;;;23.35
64790;BMP280;51223;51.816;5.862;2022-08-18T04:41:17;101274.56;;;23.01
64790;BMP280;51223;51.816;5.862;2022-08-18T04:43:43;101288.06;;;22.95
64790;BMP280;51223;51.816;5.862;2022-08-18T04:46:09;101278.94;;;22.97
64790;BMP280;51223;51.816;5.862;2022-08-18T04:48:38;101283.53;;;23.25
64790;BMP280;51223;51.816;5.862;2022-08-18T04:51:09;101274.84;;;23.79
64790;BMP280;51223;51.816;5.862;2022-08-18T04:53:36;101283.22;;;23.99
64790;BMP280;51223;51.816;5.862;2022-08-18T04:56:26;101293.56;;;23.58
64790;BMP280;51223;51.816;5.862;2022-08-18T04:58:58;101293.06;;;23.70
64790;BMP280;51223;51.816;5.862;2022-08-18T05:01:28;101286.81;;;23.72
64790;BMP280;51223;51.816;5.862;2022-08-18T05:03:56;101285.66;;;23.42
64790;BMP280;51223;51.816;5.862;2022-08-18T05:06:23;101288.13;;;23.65
64790;BMP280;51223;51.816;5.862;2022-08-18T05:08:55;101292.06;;;23.84
64790;BMP280;51223;51.816;5.862;2022-08-18T05:11:23;101301.41;;;23.79
64790;BMP280;51223;51.816;5.862;2022-08-18T05:13:50;101297.50;;;23.82
64790;BMP280;51223;51.816;5.862;2022-08-18T05:16:19;101301.47;;;24.18
64790;BMP280;51223;51.816;5.862;2022-08-18T05:18:44;101309.50;;;23.81
64790;BMP280;51223;51.816;5.862;2022-08-18T05:21:11;101309.63;;;23.50
64790;BMP280;51223;51.816;5.862;2022-08-18T05:23:40;101305.81;;;23.75
64790;BMP280;51223;51.816;5.862;2022-08-18T05:26:07;101314.88;;;23.57
64790;BMP280;51223;51.816;5.862;2022-08-18T05:28:33;101312.75;;;23.41
64790;BMP280;51223;51.816;5.862;2022-08-18T05:31:10;101308.19;;;23.76
64790;BMP280;51223;51.816;5.862;2022-08-18T05:33:37;101311.38;;;24.28
64790;BMP280;51223;51.816;5.862;2022-08-18T05:38:59;101305.66;;;23.95
64790;BMP280;51223;51.816;5.862;2022-08-18T05:41:34;101307.97;;;24.19
64790;BMP280;51223;51.816;5.862;2022-08-18T05:44:01;101312.84;;;23.63
64790;BMP280;51223;51.816;5.862;2022-08-18T05:46:39;101304.84;;;24.33
64790;BMP280;51223;51.816;5.862;2022-08-18T05:49:06;101307.22;;;24.52
64790;BMP280;51223;51.816;5.862;2022-08-18T05:51:42;101316.78;;;23.76
64790;BMP280;51223;51.816;5.862;2022-08-18T05:54:10;101311.63;;;24.14
64790;BMP280;51223;51.816;5.862;2022-08-18T05:56:59;101311.38;;;24.62
64790;BMP280;51223;51.816;5.862;2022-08-18T05:59:31;101318.84;;;24.98
64790;BMP280;51223;51.816;5.862;2022-08-18T06:02:03;101318.66;;;24.68
64790;BMP280;51223;51.816;5.862;2022-08-18T06:04:42;101320.97;;;24.92
64790;BMP280;51223;51.816;5.862;2022-08-18T06:07:14;101317.31;;;24.92
64790;BMP280;51223;51.816;5.862;2022-08-18T06:09:47;101317.34;;;24.80
64790;BMP280;51223;51.816;5.862;2022-08-18T06:14:43;101325.38;;;23.93
64790;BMP280;51223;51.816;5.862;2022-08-18T06:20:27;101318.28;;;23.61
64790;BMP280;51223;51.816;5.862;2022-08-18T06:23:07;101310.53;;;23.72
64790;BMP280;51223;51.816;5.862;2022-08-18T06:28:25;101326.97;;;23.94
64790;BMP280;51223;51.816;5.862;2022-08-18T06:31:15;101329.38;;;24.62
64790;BMP280;51223;51.816;5.862;2022-08-18T06:33:56;101331.97;;;24.55
64790;BMP280;51223;51.816;5.862;2022-08-18T06:36:35;101341.84;;;24.70
64790;BMP280;51223;51.816;5.862;2022-08-18T06:39:16;101351.16;;;25.04
64790;BMP280;51223;51.816;5.862;2022-08-18T06:41:47;101347.31;;;24.91
64790;BMP280;51223;51.816;5.862;2022-08-18T06:44:25;101349.44;;;24.46
64790;BMP280;51223;51.816;5.862;2022-08-18T06:46:58;101353.59;;;24.22
64790;BMP280;51223;51.816;5.862;2022-08-18T06:49:44;101355.13;;;24.96
64790;BMP280;51223;51.816;5.862;2022-08-18T06:52:29;101355.84;;;25.24
64790;BMP280;51223;51.816;5.862;2022-08-18T06:54:58;101359.34;;;24.39
64790;BMP280;51223;51.816;5.862;2022-08-18T06:57:54;101369.00;;;24.75
64790;BMP280;51223;51.816;5.862;2022-08-18T07:00:24;101358.81;;;24.63
64790;BMP280;51223;51.816;5.862;2022-08-18T07:03:00;101360.06;;;25.06
64790;BMP280;51223;51.816;5.862;2022-08-18T07:05:30;101365.00;;;25.17
64790;BMP280;51223;51.816;5.862;2022-08-18T07:10:36;101362.66;;;25.73
64790;BMP280;51223;51.816;5.862;2022-08-18T07:15:32;101360.19;;;26.29
64790;BMP280;51223;51.816;5.862;2022-08-18T07:18:05;101360.16;;;25.99
64790;BMP280;51223;51.816;5.862;2022-08-18T07:20:50;101354.56;;;26.12
64790;BMP280;51223;51.816;5.862;2022-08-18T07:23:23;101361.91;;;24.70
64790;BMP280;51223;51.816;5.862;2022-08-18T07:25:59;101355.16;;;24.90
64790;BMP280;51223;51.816;5.862;2022-08-18T07:28:32;101353.75;;;25.24
64790;BMP280;51223;51.816;5.862;2022-08-18T07:31:18;101347.59;;;24.65
64790;BMP280;51223;51.816;5.862;2022-08-18T07:33:57;101351.97;;;24.99
64790;BMP280;51223;51.816;5.862;2022-08-18T07:36:25;101353.06;;;25.65
64790;BMP280;51223;51.816;5.862;2022-08-18T07:38:57;101350.78;;;25.47
64790;BMP280;51223;51.816;5.862;2022-08-18T07:41:26;101352.78;;;25.00
64790;BMP280;51223;51.816;5.862;2022-08-18T07:44:04;101355.84;;;25.24
64790;BMP280;51223;51.816;5.862;2022-08-18T07:46:38;101360.31;;;26.12
64790;BMP280;51223;51.816;5.862;2022-08-18T07:49:07;101365.16;;;26.34
64790;BMP280;51223;51.816;5.862;2022-08-18T07:54:27;101369.66;;;26.24
64790;BMP280;51223;51.816;5.862;2022-08-18T07:57:27;101373.25;;;25.43
64790;BMP280;51223;51.816;5.862;2022-08-18T08:00:19;101377.00;;;25.10
64790;BMP280;51223;51.816;5.862;2022-08-18T08:05:42;101373.69;;;24.50
64790;BMP280;51223;51.816;5.862;2022-08-18T08:08:19;101369.94;;;25.79
64790;BMP280;51223;51.816;5.862;2022-08-18T08:13:46;101368.19;;;26.42
64790;BMP280;51223;51.816;5.862;2022-08-18T08:16:40;101357.09;;;26.81
64790;BMP280;51223;51.816;5.862;2022-08-18T08:22:17;101373.19;;;25.54
64790;BMP280;51223;51.816;5.862;2022-08-18T08:25:07;101370.13;;;25.41
64790;BMP280;51223;51.816;5.862;2022-08-18T08:30:16;101365.03;;;25.69
64790;BMP280;51223;51.816;5.862;2022-08-18T08:33:06;101368.47;;;25.62
64790;BMP280;51223;51.816;5.862;2022-08-18T08:35:45;101362.50;;;26.01
64790;BMP280;51223;51.816;5.862;2022-08-18T08:41:10;101365.88;;;26.40
64790;BMP280;51223;51.816;5.862;2022-08-18T08:43:48;101359.56;;;26.42
64790;BMP280;51223;51.816;5.862;2022-08-18T08:46:28;101368.41;;;25.73
64790;BMP280;51223;51.816;5.862;2022-08-18T08:49:02;101372.69;;;25.50
64790;BMP280;51223;51.816;5.862;2022-08-18T08:54:20;101375.88;;;25.41
64790;BMP280;51223;51.816;5.862;2022-08-18T08:56:49;101381.50;;;26.45
64790;BMP280;51223;51.816;5.862;2022-08-18T08:59:19;101383.06;;;27.24
64790;BMP280;51223;51.816;5.862;2022-08-18T09:04:51;101372.00;;;26.55
64790;BMP280;51223;51.816;5.862;2022-08-18T09:15:48;101383.75;;;26.22
64790;BMP280;51223;51.816;5.862;2022-08-18T09:18:41;101379.81;;;26.25
64790;BMP280;51223;51.816;5.862;2022-08-18T09:23:52;101370.81;;;26.69
64790;BMP280;51223;51.816;5.862;2022-08-18T09:29:17;101382.41;;;26.88
64790;BMP280;51223;51.816;5.862;2022-08-18T09:35:15;101375.28;;;26.41
64790;BMP280;51223;51.816;5.862;2022-08-18T09:37:51;101367.94;;;26.94
64790;BMP280;51223;51.816;5.862;2022-08-18T09:40:45;101383.41;;;27.58
64790;BMP280;51223;51.816;5.862;2022-08-18T09:43:37;101383.50;;;27.71
64790;BMP280;51223;51.816;5.862;2022-08-18T09:54:58;101357.50;;;27.58
64790;BMP280;51223;51.816;5.862;2022-08-18T09:57:31;101361.03;;;28.33
64790;BMP280;51223;51.816;5.862;2022-08-18T10:10:27;101369.09;;;26.85
64790;BMP280;51223;51.816;5.862;2022-08-18T10:16:16;101376.53;;;27.42
64790;BMP280;51223;51.816;5.862;2022-08-18T10:24:34;101363.97;;;28.99
64790;BMP280;51223;51.816;5.862;2022-08-18T10:27:11;101345.84;;;28.72
64790;BMP280;51223;51.816;5.862;2022-08-18T10:29:56;101348.50;;;28.70
64790;BMP280;51223;51.816;5.862;2022-08-18T10:32:35;101344.50;;;28.33
64790;BMP280;51223;51.816;5.862;2022-08-18T10:35:03;101351.06;;;27.65
64790;BMP280;51223;51.816;5.862;2022-08-18T10:37:36;101341.81;;;27.72
64790;BMP280;51223;51.816;5.862;2022-08-18T10:40:12;101350.84;;;27.44
64790;BMP280;51223;51.816;5.862;2022-08-18T10:45:31;101354.41;;;27.88
64790;BMP280;51223;51.816;5.862;2022-08-18T10:48:18;101352.69;;;27.98
64790;BMP280;51223;51.816;5.862;2022-08-18T10:56:38;101360.28;;;28.72
64790;BMP280;51223;51.816;5.862;2022-08-18T10:59:27;101366.63;;;29.70
64790;BMP280;51223;51.816;5.862;2022-08-18T11:04:43;101355.69;;;29.42
64790;BMP280;51223;51.816;5.862;2022-08-18T11:07:24;101352.06;;;29.02
64790;BMP280;51223;51.816;5.862;2022-08-18T11:09:52;101352.28;;;28.52
64790;BMP280;51223;51.816;5.862;2022-08-18T11:12:58;101359.63;;;28.53
64790;BMP280;51223;51.816;5.862;2022-08-18T11:15:33;101341.31;;;28.18
64790;BMP280;51223;51.816;5.862;2022-08-18T11:18:23;101341.00;;;28.22
64790;BMP280;51223;51.816;5.862;2022-08-18T11:24:27;101346.06;;;27.84
64790;BMP280;51223;51.816;5.862;2022-08-18T11:34:47;101340.78;;;27.88
64790;BMP280;51223;51.816;5.862;2022-08-18T11:37:25;101330.28;;;27.72
64790;BMP280;51223;51.816;5.862;2022-08-18T11:39:56;101330.91;;;27.65
64790;BMP280;51223;51.816;5.862;2022-08-18T11:42:29;101330.44;;;27.79
64790;BMP280;51223;51.816;5.862;2022-08-18T11:45:13;101319.38;;;27.65
64790;BMP280;51223;51.816;5.862;2022-08-18T11:48:18;101325.22;;;27.41
64790;BMP280;51223;51.816;5.862;2022-08-18T11:50:49;101329.19;;;27.75
64790;BMP280;51223;51.816;5.862;2022-08-18T11:53:34;101319.31;;;27.33
64790;BMP280;51223;51.816;5.862;2022-08-18T11:56:26;101317.84;;;27.45
64790;BMP280;51223;51.816;5.862;2022-08-18T11:59:05;101313.88;;;27.29
64790;BMP280;51223;51.816;5.862;2022-08-18T12:11:53;101304.81;;;29.39
64790;BMP280;51223;51.816;5.862;2022-08-18T12:14:23;101306.53;;;29.08
64790;BMP280;51223;51.816;5.862;2022-08-18T12:16:49;101306.09;;;29.72
64790;BMP280;51223;51.816;5.862;2022-08-18T12:19:15;101307.72;;;29.26
64790;BMP280;51223;51.816;5.862;2022-08-18T12:24:24;101302.84;;;29.08
64790;BMP280;51223;51.816;5.862;2022-08-18T12:26:50;101318.56;;;28.86
64790;BMP280;51223;51.816;5.862;2022-08-18T12:29:17;101317.22;;;28.87
64790;BMP280;51223;51.816;5.862;2022-08-18T12:31:44;101299.44;;;28.57
64790;BMP280;51223;51.816;5.862;2022-08-18T12:34:10;101302.03;;;28.73
64790;BMP280;51223;51.816;5.862;2022-08-18T12:36:36;101295.44;;;28.99
64790;BMP280;51223;51.816;5.862;2022-08-18T12:39:03;101296.31;;;29.20
64790;BMP280;51223;51.816;5.862;2022-08-18T12:41:29;101299.34;;;28.75
64790;BMP280;51223;51.816;5.862;2022-08-18T12:43:54;101299.91;;;28.61
64790;BMP280;51223;51.816;5.862;2022-08-18T12:46:21;101313.88;;;29.56
64790;BMP280;51223;51.816;5.862;2022-08-18T12:48:47;101299.13;;;29.33
64790;BMP280;51223;51.816;5.862;2022-08-18T12:51:13;101296.25;;;29.33
64790;BMP280;51223;51.816;5.862;2022-08-18T12:53:39;101304.22;;;28.67
64790;BMP280;51223;51.816;5.862;2022-08-18T12:56:27;101300.31;;;28.25
64790;BMP280;51223;51.816;5.862;2022-08-18T12:58:58;101305.19;;;28.30
64790;BMP280;51223;51.816;5.862;2022-08-18T13:01:24;101305.88;;;28.63
64790;BMP280;51223;51.816;5.862;2022-08-18T13:03:52;101317.88;;;28.54
64790;BMP280;51223;51.816;5.862;2022-08-18T13:06:21;101322.31;;;28.68
64790;BMP280;51223;51.816;5.862;2022-08-18T13:08:48;101330.66;;;28.58
64790;BMP280;51223;51.816;5.862;2022-08-18T13:11:16;101330.53;;;27.74
64790;BMP280;51223;51.816;5.862;2022-08-18T13:13:42;101326.53;;;28.54
64790;BMP280;51223;51.816;5.862;2022-08-18T13:16:09;101337.19;;;28.01
64790;BMP280;51223;51.816;5.862;2022-08-18T13:18:36;101334.19;;;28.38
64790;BMP280;51223;51.816;5.862;2022-08-18T13:21:03;101340.78;;;27.88
64790;BMP280;51223;51.816;5.862;2022-08-18T13:23:30;101344.94;;;28.51
64790;BMP280;51223;51.816;5.862;2022-08-18T13:25:58;101338.00;;;28.27
64790;BMP280;51223;51.816;5.862;2022-08-18T13:28:28;101350.75;;;28.19
64790;BMP280;51223;51.816;5.862;2022-08-18T13:30:54;101352.53;;;27.90
64790;BMP280;51223;51.816;5.862;2022-08-18T13:33:20;101347.44;;;28.28
64790;BMP280;51223;51.816;5.862;2022-08-18T13:35:46;101340.28;;;28.34
64790;BMP280;51223;51.816;5.862;2022-08-18T13:38:13;101347.06;;;28.05
64790;BMP280;51223;51.816;5.862;2022-08-18T13:40:40;101344.84;;;27.98
64790;BMP280;51223;51.816;5.862;2022-08-18T13:43:06;101347.50;;;28.09
64790;BMP280;51223;51.816;5.862;2022-08-18T13:45:33;101352.56;;;28.80
64790;BMP280;51223;51.816;5.862;2022-08-18T13:47:59;101352.09;;;29.15
64790;BMP280;51223;51.816;5.862;2022-08-18T13:50:25;101345.59;;;29.35
64790;BMP280;51223;51.816;5.862;2022-08-18T13:52:51;101340.50;;;29.28
64790;BMP280;51223;51.816;5.862;2022-08-18T13:55:19;101338.63;;;30.06
64790;BMP280;51223;51.816;5.862;2022-08-18T13:57:45;101335.81;;;29.38
64790;BMP280;51223;51.816;5.862;2022-08-18T14:00:18;101328.75;;;29.81
64790;BMP280;51223;51.816;5.862;2022-08-18T14:02:50;101323.69;;;30.43
64790;BMP280;51223;51.816;5.862;2022-08-18T14:05:21;101311.78;;;30.83
64790;BMP280;51223;51.816;5.862;2022-08-18T14:07:47;101310.25;;;29.63
64790;BMP280;51223;51.816;5.862;2022-08-18T14:10:14;101310.72;;;30.37
64790;BMP280;51223;51.816;5.862;2022-08-18T14:12:40;101309.63;;;31.19
64790;BMP280;51223;51.816;5.862;2022-08-18T14:15:09;101318.16;;;31.32
64790;BMP280;51223;51.816;5.862;2022-08-18T14:17:35;101311.19;;;31.28
64790;BMP280;51223;51.816;5.862;2022-08-18T14:20:02;101318.00;;;30.87
64790;BMP280;51223;51.816;5.862;2022-08-18T14:22:50;101307.31;;;30.46
64790;BMP280;51223;51.816;5.862;2022-08-18T14:25:34;101302.16;;;30.60
64790;BMP280;51223;51.816;5.862;2022-08-18T14:28:19;101303.09;;;30.47
64790;BMP280;51223;51.816;5.862;2022-08-18T14:30:47;101297.25;;;31.19
64790;BMP280;51223;51.816;5.862;2022-08-18T14:33:16;101294.84;;;31.53
64790;BMP280;51223;51.816;5.862;2022-08-18T14:35:43;101295.75;;;31.40
64790;BMP280;51223;51.816;5.862;2022-08-18T14:38:09;101286.31;;;31.47
64790;BMP280;51223;51.816;5.862;2022-08-18T14:40:35;101286.31;;;30.81
64790;BMP280;51223;51.816;5.862;2022-08-18T14:43:01;101276.25;;;30.46
64790;BMP280;51223;51.816;5.862;2022-08-18T14:45:27;101283.25;;;30.87
64790;BMP280;51223;51.816;5.862;2022-08-18T14:47:55;101275.06;;;29.52
64790;BMP280;51223;51.816;5.862;2022-08-18T14:50:22;101290.34;;;30.22
64790;BMP280;51223;51.816;5.862;2022-08-18T14:52:48;101285.38;;;30.30
64790;BMP280;51223;51.816;5.862;2022-08-18T14:55:15;101280.66;;;31.19
64790;BMP280;51223;51.816;5.862;2022-08-18T14:57:42;101274.84;;;31.27
64790;BMP280;51223;51.816;5.862;2022-08-18T15:00:12;101279.75;;;31.85
64790;BMP280;51223;51.816;5.862;2022-08-18T15:02:40;101284.53;;;31.37
64790;BMP280;51223;51.816;5.862;2022-08-18T15:05:08;101279.16;;;31.56
64790;BMP280;51223;51.816;5.862;2022-08-18T15:07:35;101268.09;;;30.37
64790;BMP280;51223;51.816;5.862;2022-08-18T15:10:07;101261.75;;;30.39
64790;BMP280;51223;51.816;5.862;2022-08-18T15:12:34;101263.72;;;30.87
64790;BMP280;51223;51.816;5.862;2022-08-18T15:15:00;101259.47;;;31.77
64790;BMP280;51223;51.816;5.862;2022-08-18T15:17:26;101256.56;;;31.70
64790;BMP280;51223;51.816;5.862;2022-08-18T15:19:53;101255.56;;;32.05
64790;BMP280;51223;51.816;5.862;2022-08-18T15:22:19;101262.97;;;31.91
64790;BMP280;51223;51.816;5.862;2022-08-18T15:25:05;101261.97;;;32.03
64790;BMP280;51223;51.816;5.862;2022-08-18T15:27:50;101269.72;;;32.01
64790;BMP280;51223;51.816;5.862;2022-08-18T15:30:19;101263.72;;;31.53
64790;BMP280;51223;51.816;5.862;2022-08-18T15:32:47;101263.50;;;30.78
64790;BMP280;51223;51.816;5.862;2022-08-18T15:35:13;101264.41;;;31.16
64790;BMP280;51223;51.816;5.862;2022-08-18T15:37:42;101260.25;;;31.62
64790;BMP280;51223;51.816;5.862;2022-08-18T15:40:17;101260.78;;;31.46
64790;BMP280;51223;51.816;5.862;2022-08-18T15:42:48;101260.22;;;31.78
64790;BMP280;51223;51.816;5.862;2022-08-18T15:45:21;101255.22;;;31.63
64790;BMP280;51223;51.816;5.862;2022-08-18T15:47:47;101260.19;;;31.25
64790;BMP280;51223;51.816;5.862;2022-08-18T15:50:13;101269.66;;;31.33
64790;BMP280;51223;51.816;5.862;2022-08-18T15:53:00;101266.03;;;31.55
64790;BMP280;51223;51.816;5.862;2022-08-18T15:55:29;101262.56;;;30.90
64790;BMP280;51223;51.816;5.862;2022-08-18T15:57:56;101260.31;;;30.61
64790;BMP280;51223;51.816;5.862;2022-08-18T16:00:23;101263.72;;;30.87
64790;BMP280;51223;51.816;5.862;2022-08-18T16:02:55;101269.13;;;30.91
64790;BMP280;51223;51.816;5.862;2022-08-18T16:05:25;101264.50;;;30.95
64790;BMP280;51223;51.816;5.862;2022-08-18T16:07:53;101265.97;;;31.17
64790;BMP280;51223;51.816;5.862;2022-08-18T16:10:22;101257.84;;;31.23
64790;BMP280;51223;51.816;5.862;2022-08-18T16:12:48;101263.13;;;31.47
64790;BMP280;51223;51.816;5.862;2022-08-18T16:15:16;101264.25;;;31.29
64790;BMP280;51223;51.816;5.862;2022-08-18T16:17:42;101272.41;;;31.76
64790;BMP280;51223;51.816;5.862;2022-08-18T16:20:09;101267.97;;;31.83
64790;BMP280;51223;51.816;5.862;2022-08-18T16:22:36;101258.28;;;32.03